Time;durP1;ratioP1;P1;durP2;ratioP2;P2;SDS_P1;SDS_P2;PMS_P1;PMS_P2;Temp;Humidity;BMP_temperature;BMP_pressure;BME280_temperature;BME280_humidity;BME280_pressure;Samples;Min_cycle;Max_cycle;Signal;HPM_P1;HPM_P2
2023/04/04 00:01:48;;;;;;;1.77;1.50;;;;;;;8.91;100.00;99199.72;5050456;28;20759;-76
2023/04/04 00:04:15;;;;;;;1.30;1.20;;;;;;;8.85;100.00;99193.63;5050533;28;20196;-75
2023/04/04 00:06:44;;;;;;;1.77;1.40;;;;;;;8.91;100.00;99178.19;5050470;28;20203;-76
2023/04/04 00:09:13;;;;;;;1.27;1.17;;;;;;;8.75;100.00;99169.44;5054130;28;20207;-76
2023/04/04 00:11:41;;;;;;;1.47;1.37;;;;;;;8.38;100.00;99119.19;5053999;28;20211;-76
2023/04/04 00:14:08;;;;;;;1.40;1.30;;;;;;;8.74;100.00;99177.19;5054093;28;20264;-75
2023/04/04 00:16:35;;;;;;;1.50;1.40;;;;;;;8.85;100.00;99204.84;5053297;28;20223;-76
2023/04/04 00:19:02;;;;;;;1.43;1.33;;;;;;;8.82;100.00;99180.69;5053984;28;20264;-76
2023/04/04 00:21:29;;;;;;;1.57;1.47;;;;;;;8.84;100.00;99186.75;5053930;28;20207;-75
2023/04/04 00:23:56;;;;;;;1.43;1.33;;;;;;;8.60;100.00;99181.38;5053796;28;20196;-76
2023/04/04 00:26:25;;;;;;;1.67;1.50;;;;;;;8.67;100.00;99178.00;5054132;28;20199;-76
2023/04/04 00:28:51;;;;;;;1.57;1.47;;;;;;;8.58;100.00;99176.19;5053365;28;20199;-75
2023/04/04 00:31:18;;;;;;;1.83;1.67;;;;;;;8.52;100.00;99172.72;5053805;28;20211;-76
2023/04/04 00:33:46;;;;;;;1.50;1.40;;;;;;;8.45;100.00;99151.97;5018068;28;20207;-75
2023/04/04 00:36:12;;;;;;;2.07;1.97;;;;;;;8.40;100.00;99153.66;5053280;28;20774;-76
2023/04/04 00:38:39;;;;;;;1.47;1.40;;;;;;;8.33;100.00;99149.31;5018306;28;20191;-75
2023/04/04 00:41:06;;;;;;;1.23;1.23;;;;;;;8.33;100.00;99154.47;5051556;28;20200;-76
2023/04/04 00:43:35;;;;;;;1.20;1.20;;;;;;;8.48;100.00;99160.63;5053448;28;20210;-74
2023/04/04 00:46:02;;;;;;;1.70;1.60;;;;;;;8.14;100.00;99155.09;5053483;28;20214;-75
2023/04/04 00:48:30;;;;;;;1.90;1.80;;;;;;;8.32;100.00;99162.19;5053357;28;20219;-76
2023/04/04 00:50:57;;;;;;;1.23;1.23;;;;;;;8.32;100.00;99160.47;5052890;28;20206;-75
2023/04/04 00:53:23;;;;;;;1.03;1.03;;;;;;;8.25;100.00;99155.19;5053647;28;20195;-75
2023/04/04 00:55:50;;;;;;;1.03;1.03;;;;;;;8.35;100.00;99175.13;5053193;28;20226;-75
2023/04/04 00:58:18;;;;;;;1.20;1.20;;;;;;;8.33;100.00;99177.72;5053195;28;20199;-75
2023/04/04 01:00:46;;;;;;;1.10;1.10;;;;;;;8.36;100.00;99187.19;5052982;28;20235;-76
2023/04/04 01:03:13;;;;;;;1.03;1.03;;;;;;;8.30;100.00;99164.78;5051820;28;20678;-75
2023/04/04 01:05:40;;;;;;;0.90;0.90;;;;;;;8.39;100.00;99174.31;5053571;28;20198;-76
2023/04/04 01:08:07;;;;;;;0.90;0.90;;;;;;;8.39;100.00;99182.91;5053126;28;20302;-76
2023/04/04 01:10:34;;;;;;;0.90;0.90;;;;;;;8.28;100.00;99175.88;5052906;28;20573;-76
2023/04/04 01:13:01;;;;;;;1.57;1.57;;;;;;;8.33;100.00;99182.88;5053099;28;20207;-76
2023/04/04 01:15:29;;;;;;;1.20;1.10;;;;;;;8.11;100.00;99154.22;5052824;28;20228;-76
2023/04/04 01:18:00;;;;;;;0.93;0.93;;;;;;;8.25;100.00;99174.16;5052459;28;20250;-75
2023/04/04 01:20:30;;;;;;;0.90;0.90;;;;;;;8.32;100.00;99169.94;5051904;28;20638;-76
2023/04/04 01:22:59;;;;;;;1.00;1.00;;;;;;;8.17;100.00;99159.44;5034185;28;20633;-76
2023/04/04 01:25:32;;;;;;;0.90;0.90;;;;;;;8.08;100.00;99147.31;5052807;28;20567;-76
2023/04/04 01:27:59;;;;;;;0.93;0.93;;;;;;;8.06;100.00;99167.09;5052445;28;20754;-76
2023/04/04 01:30:30;;;;;;;1.20;1.20;;;;;;;8.19;100.00;99163.78;5050904;28;20239;-77
2023/04/04 01:33:00;;;;;;;1.00;1.00;;;;;;;8.14;100.00;99159.41;5053192;28;20195;-77
2023/04/04 01:35:35;;;;;;;0.93;0.93;;;;;;;8.09;100.00;99137.84;5052522;28;20219;-77
2023/04/04 01:38:14;;;;;;;0.90;0.90;;;;;;;8.16;100.00;99162.88;5052403;28;20222;-76
2023/04/04 01:40:48;;;;;;;1.03;1.03;;;;;;;8.16;100.00;99161.16;5052554;28;20279;-76
2023/04/04 01:43:14;;;;;;;0.93;0.93;;;;;;;8.08;100.00;99155.06;5052513;28;20620;-77
2023/04/04 01:45:42;;;;;;;1.10;1.10;;;;;;;7.93;100.00;99129.94;5052386;28;20203;-77
2023/04/04 01:48:09;;;;;;;1.00;1.00;;;;;;;7.90;100.00;99129.06;5052081;28;20639;-76
2023/04/04 01:50:36;;;;;;;1.03;1.03;;;;;;;7.77;100.00;99147.84;5052266;28;20195;-77
2023/04/04 01:53:03;;;;;;;1.00;1.00;;;;;;;7.68;100.00;99140.00;5052670;28;20192;-75
2023/04/04 01:55:30;;;;;;;1.10;1.10;;;;;;;7.68;100.00;99158.91;5052518;28;20227;-75
2023/04/04 01:57:58;;;;;;;1.03;1.03;;;;;;;7.54;100.00;99150.16;5052311;28;20203;-75
2023/04/04 02:00:25;;;;;;;1.10;1.10;;;;;;;7.30;100.00;99161.03;5051883;28;21368;-75
2023/04/04 02:02:52;;;;;;;1.20;1.20;;;;;;;7.37;100.00;99165.44;5051921;28;20631;-75
2023/04/04 02:05:19;;;;;;;1.10;1.10;;;;;;;7.25;100.00;99164.38;5049890;28;20223;-77
2023/04/04 02:07:49;;;;;;;1.20;1.20;;;;;;;7.33;100.00;99155.91;5033015;28;20187;-75
2023/04/04 02:10:16;;;;;;;1.47;1.47;;;;;;;7.13;100.00;99159.94;5051989;28;20245;-75
2023/04/04 02:12:43;;;;;;;1.10;1.10;;;;;;;6.97;100.00;99148.56;5051967;28;20226;-75
2023/04/04 02:15:11;;;;;;;1.10;1.10;;;;;;;7.16;100.00;99156.53;5051585;28;20682;-76
2023/04/04 02:17:38;;;;;;;2.00;1.90;;;;;;;6.84;100.00;99150.94;5051433;28;20250;-76
2023/04/04 02:20:07;;;;;;;1.13;1.13;;;;;;;6.86;100.00;99121.75;5051331;28;20200;-76
2023/04/04 02:22:33;;;;;;;1.60;1.50;;;;;;;6.78;100.00;99125.06;5050401;28;20211;-77
2023/04/04 02:25:01;;;;;;;1.67;1.57;;;;;;;6.89;100.00;99137.25;5051505;28;20218;-75
2023/04/04 02:27:28;;;;;;;1.60;1.50;;;;;;;6.85;100.00;99145.78;5050979;28;20203;-76
2023/04/04 02:29:55;;;;;;;1.93;1.83;;;;;;;6.94;100.00;99147.66;5050731;28;20211;-75
2023/04/04 02:32:24;;;;;;;2.20;2.00;;;;;;;6.97;100.00;99145.09;5051564;28;20215;-75
2023/04/04 02:34:51;;;;;;;1.53;1.43;;;;;;;6.86;100.00;99138.94;5048040;28;20207;-76
2023/04/04 02:37:18;;;;;;;3.30;1.57;;;;;;;6.61;100.00;99119.69;5051042;28;20261;-77
2023/04/04 02:39:45;;;;;;;1.70;1.60;;;;;;;6.61;100.00;99142.84;5031903;28;20199;-75
2023/04/04 02:42:12;;;;;;;1.10;1.10;;;;;;;6.44;100.00;99122.00;5051261;28;20205;-75
2023/04/04 02:44:38;;;;;;;1.40;1.30;;;;;;;6.53;100.00;99146.16;5049669;28;20713;-75
2023/04/04 02:47:06;;;;;;;1.20;1.10;;;;;;;6.49;100.00;99142.69;5032717;28;20665;-75
2023/04/04 02:49:34;;;;;;;1.30;1.20;;;;;;;6.32;100.00;99115.78;5049058;28;20203;-75
2023/04/04 02:52:01;;;;;;;1.37;1.27;;;;;;;6.53;100.00;99166.75;5050911;28;20274;-75
2023/04/04 02:54:28;;;;;;;1.33;1.23;;;;;;;6.47;100.00;99163.25;5050982;28;20294;-76
2023/04/04 02:56:55;;;;;;;1.30;1.20;;;;;;;6.42;100.00;99148.56;5050912;28;20257;-77
2023/04/04 02:59:22;;;;;;;1.42;1.33;;;;;;;7.01;100.00;99146.88;5050808;28;20421;-74
2023/04/04 03:01:48;;;;;;;0.90;0.90;;;;;;;6.63;100.00;99158.34;5049815;28;20458;-75
2023/04/04 03:04:15;;;;;;;1.40;1.30;;;;;;;6.54;100.00;99169.34;5050834;28;20195;-76
2023/04/04 03:06:44;;;;;;;1.60;1.50;;;;;;;6.53;100.00;99166.75;5050373;28;20732;-76
2023/04/04 03:09:11;;;;;;;1.20;1.10;;;;;;;6.43;100.00;99176.03;5041577;28;20204;-75
2023/04/04 03:11:38;;;;;;;1.33;1.23;;;;;;;6.47;100.00;99186.41;5050745;28;20202;-76
2023/04/04 03:14:05;;;;;;;1.70;1.60;;;;;;;6.71;100.00;99169.59;5050800;28;20934;-75
2023/04/04 03:16:32;;;;;;;12.23;1.60;;;;;;;6.23;100.00;99178.28;5016091;28;20261;-76
2023/04/04 03:18:59;;;;;;;2.47;2.37;;;;;;;6.34;100.00;99176.75;5050845;28;20548;-75
2023/04/04 03:21:26;;;;;;;1.50;1.40;;;;;;;6.39;100.00;99167.38;5050312;28;20531;-76
2023/04/04 03:23:54;;;;;;;1.53;1.47;;;;;;;6.25;100.00;99157.69;5048843;28;20765;-74
2023/04/04 03:26:21;;;;;;;1.77;1.67;;;;;;;6.25;100.00;99168.84;5050237;28;20207;-75
2023/04/04 03:28:48;;;;;;;1.13;1.13;;;;;;;6.13;100.00;99153.22;5048332;28;20210;-73
2023/04/04 03:31:14;;;;;;;1.80;1.70;;;;;;;6.59;100.00;99143.69;5050404;28;20206;-77
2023/04/04 03:33:42;;;;;;;1.02;1.02;;;;;;;6.26;100.00;99165.47;5049526;28;20451;-75
2023/04/04 03:36:12;;;;;;;1.50;1.40;;;;;;;6.43;100.00;99171.75;5050296;28;20288;-74
2023/04/04 03:38:39;;;;;;;1.90;1.80;;;;;;;6.02;100.00;99143.56;5050490;28;20191;-75
2023/04/04 03:41:09;;;;;;;1.20;1.20;;;;;;;6.19;100.00;99145.59;5050080;28;20219;-75
2023/04/04 03:43:36;;;;;;;1.37;1.30;;;;;;;6.22;100.00;99173.97;5053984;28;20265;-74
2023/04/04 03:46:03;;;;;;;1.37;1.37;;;;;;;6.04;100.00;99168.47;5054641;28;20295;-74
2023/04/04 03:48:30;;;;;;;1.57;1.47;;;;;;;6.27;100.00;99163.75;5046522;28;20196;-74
2023/04/04 03:50:57;;;;;;;1.60;1.50;;;;;;;6.06;100.00;99151.38;5049913;28;20263;-73
2023/04/04 03:53:24;;;;;;;1.20;1.10;;;;;;;6.10;100.00;99166.00;5054167;28;20195;-73
2023/04/04 03:55:52;;;;;;;1.00;1.00;;;;;;;6.03;100.00;99159.03;5053765;28;20222;-75
2023/04/04 03:58:21;;;;;;;1.37;1.27;;;;;;;6.10;100.00;99155.72;5054578;28;20195;-74
2023/04/04 04:00:48;;;;;;;1.70;1.53;;;;;;;6.08;100.00;99151.41;5054196;28;20223;-73
2023/04/04 04:03:15;;;;;;;1.50;1.40;;;;;;;6.08;100.00;99166.84;5054515;28;20651;-74
2023/04/04 04:05:42;;;;;;;1.30;1.20;;;;;;;6.15;100.00;99174.69;5053930;28;20202;-73
2023/04/04 04:08:08;;;;;;;1.23;1.20;;;;;;;6.07;100.00;99153.09;5054339;28;20204;-73
2023/04/04 04:10:35;;;;;;;1.50;1.40;;;;;;;5.91;100.00;99169.97;5035772;28;20211;-74
2023/04/04 04:13:02;;;;;;;1.80;1.70;;;;;;;5.87;100.00;99170.75;5018571;28;20199;-74
2023/04/04 04:15:30;;;;;;;2.03;1.50;;;;;;;5.95;100.00;99160.59;5034422;28;20207;-74
2023/04/04 04:17:57;;;;;;;1.30;1.20;;;;;;;5.84;100.00;99151.78;5053291;28;20195;-74
2023/04/04 04:20:24;;;;;;;1.30;1.20;;;;;;;5.87;100.00;99162.16;5035879;28;20686;-73
2023/04/04 04:22:50;;;;;;;1.40;1.30;;;;;;;5.97;100.00;99169.22;5054466;28;20282;-73
2023/04/04 04:25:17;;;;;;;1.60;1.40;;;;;;;5.91;100.00;99166.53;5017546;28;20211;-74
2023/04/04 04:27:44;;;;;;;1.57;1.47;;;;;;;5.75;100.00;99162.75;5034286;28;20231;-73
2023/04/04 04:30:12;;;;;;;1.40;1.30;;;;;;;5.81;100.00;99165.47;5043454;28;20238;-73
2023/04/04 04:32:41;;;;;;;1.20;1.10;;;;;;;5.92;100.00;99155.41;5053703;28;20293;-73
2023/04/04 04:35:08;;;;;;;1.97;1.67;;;;;;;5.82;100.00;99143.16;5053566;28;20206;-73
2023/04/04 04:37:35;;;;;;;1.20;1.10;;;;;;;5.84;100.00;99167.22;5053532;28;20234;-73
2023/04/04 04:40:02;;;;;;;1.70;1.40;;;;;;;5.70;100.00;99158.38;5053579;28;20211;-74
2023/04/04 04:42:29;;;;;;;1.10;1.10;;;;;;;5.81;100.00;99160.31;5053513;28;20207;-71
2023/04/04 04:44:56;;;;;;;1.63;1.53;;;;;;;5.74;100.00;99173.03;5033363;28;20600;-72
2023/04/04 04:47:23;;;;;;;1.20;1.10;;;;;;;5.69;100.00;99154.94;5053181;28;20633;-72
2023/04/04 04:49:51;;;;;;;1.60;1.50;;;;;;;5.83;100.00;99181.78;5054000;28;20211;-72
2023/04/04 04:52:18;;;;;;;1.30;1.20;;;;;;;5.83;100.00;99176.63;5053249;28;20659;-75
2023/04/04 04:54:45;;;;;;;1.47;1.37;;;;;;;5.74;100.00;99170.47;5053572;28;20230;-74
2023/04/04 04:57:12;;;;;;;1.53;1.43;;;;;;;5.44;100.00;99156.16;5052493;28;20617;-73
2023/04/04 04:59:40;;;;;;;1.50;1.40;;;;;;;5.57;100.00;99164.97;5051698;28;20618;-73
2023/04/04 05:02:07;;;;;;;1.13;1.13;;;;;;;5.71;100.00;99160.97;5053315;28;20210;-73
2023/04/04 05:04:34;;;;;;;2.17;1.70;;;;;;;5.67;100.00;99161.72;5052048;28;20216;-73
2023/04/04 05:07:02;;;;;;;1.10;1.10;;;;;;;5.64;100.00;99147.94;5053278;28;20230;-76
2023/04/04 05:09:29;;;;;;;1.43;1.33;;;;;;;5.70;100.00;99161.81;5053124;28;20651;-71
2023/04/04 05:11:56;;;;;;;1.23;1.13;;;;;;;5.64;100.00;99176.22;5052640;28;20277;-74
2023/04/04 05:14:23;;;;;;;1.53;1.43;;;;;;;5.69;100.00;99147.22;5053027;28;20238;-73
2023/04/04 05:16:50;;;;;;;1.20;1.20;;;;;;;5.75;100.00;99143.88;5052692;28;20245;-74
2023/04/04 05:19:16;;;;;;;1.50;1.40;;;;;;;5.75;100.00;99161.88;5053192;28;20226;-74
2023/04/04 05:21:43;;;;;;;1.33;1.30;;;;;;;5.79;100.00;99158.53;5052800;28;20192;-75
2023/04/04 05:24:11;;;;;;;2.13;2.00;;;;;;;5.96;100.00;99157.19;5052379;28;20211;-74
2023/04/04 05:26:38;;;;;;;1.30;1.30;;;;;;;5.71;100.00;99142.09;5052522;28;20261;-72
2023/04/04 05:29:05;;;;;;;1.60;1.50;;;;;;;5.69;100.00;99159.22;5053046;28;20203;-73
2023/04/04 05:31:32;;;;;;;1.60;1.50;;;;;;;5.55;100.00;99111.78;5052662;28;20203;-72
2023/04/04 05:34:06;;;;;;;2.97;2.53;;;;;;;5.54;100.00;99149.50;5053098;28;20695;-73
2023/04/04 05:36:33;;;;;;;1.43;1.33;;;;;;;5.61;100.00;99150.47;5052396;28;20299;-74
2023/04/04 05:39:00;;;;;;;1.50;1.40;;;;;;;5.67;100.00;99133.44;5052600;28;20196;-75
2023/04/04 05:41:28;;;;;;;2.13;1.80;;;;;;;5.64;100.00;99147.94;5052464;28;20218;-73
2023/04/04 05:43:55;;;;;;;2.20;1.80;;;;;;;5.50;100.00;99153.69;5052179;28;20207;-75
2023/04/04 05:46:22;;;;;;;2.97;1.80;;;;;;;5.44;100.00;99138.16;5052043;28;20207;-73
2023/04/04 05:48:49;;;;;;;2.40;1.53;;;;;;;5.58;100.00;99164.13;5051867;28;20211;-72
2023/04/04 05:51:16;;;;;;;2.77;1.73;;;;;;;5.68;100.00;99160.91;5052007;28;20269;-72
2023/04/04 05:53:44;;;;;;;2.40;1.73;;;;;;;5.69;100.00;99174.63;5049771;28;20207;-73
2023/04/04 05:56:11;;;;;;;2.07;1.70;;;;;;;5.37;100.00;99138.00;5051985;28;20223;-72
2023/04/04 05:58:39;;;;;;;1.67;1.47;;;;;;;5.57;100.00;99156.38;5052003;28;20207;-73
2023/04/04 06:01:07;;;;;;;1.67;1.47;;;;;;;5.70;100.00;99159.25;5051763;28;20735;-73
2023/04/04 06:03:34;;;;;;;2.03;1.80;;;;;;;5.72;100.00;99167.84;5051771;28;20207;-73
2023/04/04 06:06:03;;;;;;;1.30;1.20;;;;;;;5.72;100.00;99151.53;5051048;28;20199;-72
2023/04/04 06:08:30;;;;;;;2.00;1.70;;;;;;;5.62;100.00;99178.78;5051971;28;20231;-72
2023/04/04 06:10:57;;;;;;;1.60;1.50;;;;;;;5.47;100.00;99171.63;5051336;28;20788;-72
2023/04/04 06:13:23;;;;;;;1.60;1.50;;;;;;;5.52;100.00;99158.88;5051449;28;20203;-73
2023/04/04 06:15:52;;;;;;;1.97;1.83;;;;;;;5.49;100.00;99161.41;5051489;28;20207;-74
2023/04/04 06:18:18;;;;;;;2.13;1.90;;;;;;;5.36;100.00;99162.84;5051387;28;20215;-73
2023/04/04 06:20:45;;;;;;;1.53;1.37;;;;;;;5.53;100.00;99172.63;5051330;28;20195;-72
2023/04/04 06:23:12;;;;;;;1.60;1.23;;;;;;;5.42;100.00;99175.81;5051244;28;20679;-72
2023/04/04 06:25:39;;;;;;;1.87;1.60;;;;;;;5.43;100.00;99177.56;5051336;28;20208;-72
2023/04/04 06:28:06;;;;;;;1.50;1.40;;;;;;;5.44;100.00;99191.28;5051107;28;20600;-73
2023/04/04 06:30:36;;;;;;;1.63;1.53;;;;;;;5.46;100.00;99181.88;5051105;28;20231;-72
2023/04/04 06:33:04;;;;;;;1.40;1.30;;;;;;;5.45;100.00;99213.56;5051293;28;20625;-73
2023/04/04 06:35:31;;;;;;;1.40;1.27;;;;;;;5.20;100.00;99173.66;5050951;28;20203;-73
2023/04/04 06:37:58;;;;;;;1.47;1.37;;;;;;;5.38;100.00;99206.56;5051054;28;20226;-73
2023/04/04 06:40:25;;;;;;;1.47;1.37;;;;;;;5.53;100.00;99198.31;5051148;28;20691;-72
2023/04/04 06:42:53;;;;;;;1.33;1.23;;;;;;;5.46;100.00;99210.16;5051060;28;20215;-72
2023/04/04 06:45:20;;;;;;;2.23;2.07;;;;;;;5.30;100.00;99211.53;5048743;28;20748;-72
2023/04/04 06:47:48;;;;;;;1.77;1.67;;;;;;;5.30;100.00;99192.69;5050593;28;20210;-74
2023/04/04 06:50:17;;;;;;;2.10;1.90;;;;;;;5.24;100.00;99203.72;5050683;28;20237;-73
2023/04/04 06:52:44;;;;;;;4.20;2.23;;;;;;;5.41;100.00;99197.22;5050611;28;20199;-74
2023/04/04 06:55:12;;;;;;;2.07;1.87;;;;;;;5.48;100.00;99208.50;5050473;28;20207;-73
2023/04/04 06:57:38;;;;;;;1.50;1.40;;;;;;;5.36;100.00;99203.09;5050733;28;20230;-73
2023/04/04 07:00:06;;;;;;;1.60;1.50;;;;;;;5.30;100.00;99201.25;5050482;28;20576;-72
2023/04/04 07:02:33;;;;;;;3.47;1.97;;;;;;;5.12;100.00;99203.44;5050577;28;20214;-73
2023/04/04 07:05:00;;;;;;;1.33;1.23;;;;;;;5.24;100.00;99214.00;5050785;28;20204;-72
2023/04/04 07:07:29;;;;;;;1.10;1.10;;;;;;;5.38;100.00;99207.44;5050614;28;20199;-75
2023/04/04 07:09:56;;;;;;;1.43;1.33;;;;;;;5.61;100.00;99213.03;5015665;28;20231;-74
2023/04/04 07:12:23;;;;;;;1.30;1.30;;;;;;;5.55;100.00;99218.06;5050503;28;20642;-76
2023/04/04 07:14:50;;;;;;;1.73;1.63;;;;;;;4.79;100.00;99146.16;5050510;28;20203;-77
2023/04/04 07:17:17;;;;;;;2.53;2.33;;;;;;;5.27;100.00;99234.63;5049736;28;20284;-78
2023/04/04 07:19:43;;;;;;;1.63;1.53;;;;;;;5.35;100.00;99227.91;5050288;28;20569;-76
2023/04/04 07:22:11;;;;;;;1.40;1.40;;;;;;;5.15;100.00;99212.91;5050622;28;20222;-77
2023/04/04 07:24:41;;;;;;;1.13;1.13;;;;;;;5.22;100.00;99195.09;5050864;28;20211;-77
2023/04/04 07:27:07;;;;;;;1.30;1.30;;;;;;;5.20;100.00;99225.03;5050644;28;20203;-74
2023/04/04 07:29:34;;;;;;;1.20;1.20;;;;;;;4.37;100.00;99049.41;5050247;28;20218;-78
2023/04/04 07:32:01;;;;;;;1.30;1.30;;;;;;;5.62;100.00;99229.34;5051092;28;20196;-80
2023/04/04 07:34:28;;;;;;;1.13;1.13;;;;;;;5.25;100.00;99210.56;5050708;28;20199;-73
2023/04/04 07:36:55;;;;;;;1.83;1.77;;;;;;;5.37;100.00;99228.84;5050265;28;20292;-74
2023/04/04 07:39:22;;;;;;;1.40;1.40;;;;;;;5.34;100.00;99230.47;5050378;28;20203;-75
2023/04/04 07:41:50;;;;;;;1.33;1.33;;;;;;;5.11;100.00;99237.66;5050178;28;20290;-74
2023/04/04 07:44:17;;;;;;;1.27;1.27;;;;;;;5.07;100.00;99243.56;5050534;28;20207;-76
2023/04/04 07:46:44;;;;;;;1.20;1.20;;;;;;;4.98;100.00;99225.38;5031540;28;20211;-74
2023/04/04 07:49:11;;;;;;;1.20;1.20;;;;;;;4.83;100.00;99222.44;5050337;28;20211;-74
2023/04/04 07:51:38;;;;;;;1.10;1.10;;;;;;;5.06;100.00;99226.41;5049923;28;20207;-74
2023/04/04 07:54:06;;;;;;;1.20;1.20;;;;;;;5.36;100.00;99218.50;5050274;28;20678;-74
2023/04/04 07:56:32;;;;;;;1.37;1.37;;;;;;;5.20;100.00;99221.59;5049833;28;20230;-74
2023/04/04 07:59:01;;;;;;;1.33;1.33;;;;;;;5.26;100.00;99224.28;5049871;28;20204;-74
2023/04/04 08:01:27;;;;;;;7.33;1.70;;;;;;;5.02;100.00;99234.88;5049911;28;20216;-74
2023/04/04 08:03:55;;;;;;;1.43;1.43;;;;;;;5.30;100.00;99229.53;5031337;28;20195;-73
2023/04/04 08:06:22;;;;;;;1.00;1.00;;;;;;;5.32;100.00;99204.72;5050132;28;20306;-74
2023/04/04 08:08:49;;;;;;;1.40;1.40;;;;;;;5.10;100.00;99228.19;5049933;28;20210;-72
2023/04/04 08:11:16;;;;;;;1.50;1.50;;;;;;;5.31;100.00;99236.41;5049947;28;20286;-74
2023/04/04 08:13:43;;;;;;;1.33;1.33;;;;;;;5.24;100.00;99219.13;5031295;28;20242;-75
2023/04/04 08:16:11;;;;;;;1.30;1.30;;;;;;;5.06;100.00;99190.47;5049781;28;20615;-74
2023/04/04 08:18:38;;;;;;;1.00;1.00;;;;;;;5.15;100.00;99239.47;5049854;28;20318;-73
2023/04/04 08:21:05;;;;;;;1.10;1.10;;;;;;;4.93;100.00;99204.72;5050128;28;20203;-72
2023/04/04 08:23:32;;;;;;;1.00;1.00;;;;;;;5.16;100.00;99233.50;5049861;28;20307;-73
2023/04/04 08:25:59;;;;;;;1.10;1.10;;;;;;;5.45;100.00;99229.88;5050010;28;20203;-74
2023/04/04 08:28:27;;;;;;;1.10;1.10;;;;;;;5.35;100.00;99238.19;5032424;28;20239;-73
2023/04/04 08:30:54;;;;;;;1.30;1.30;;;;;;;5.27;100.00;99233.75;5053432;28;20202;-73
2023/04/04 08:33:22;;;;;;;1.30;1.30;;;;;;;5.31;100.00;99241.56;5053464;28;20227;-73
2023/04/04 08:35:50;;;;;;;1.00;1.00;;;;;;;5.09;100.00;99213.66;5053464;28;20204;-73
2023/04/04 08:38:17;;;;;;;1.40;1.40;;;;;;;5.19;100.00;99220.72;5053193;28;20714;-73
2023/04/04 08:40:46;;;;;;;1.20;1.20;;;;;;;5.40;100.00;99223.75;5053308;28;20200;-73
2023/04/04 08:43:15;;;;;;;1.40;1.40;;;;;;;5.40;100.00;99226.31;5053255;28;20289;-73
2023/04/04 08:45:45;;;;;;;1.57;1.57;;;;;;;5.23;100.00;99226.78;5053314;28;20235;-74
2023/04/04 08:48:14;;;;;;;1.20;1.20;;;;;;;5.13;100.00;99235.13;5052997;28;20203;-73
2023/04/04 08:50:42;;;;;;;2.97;2.67;;;;;;;5.16;100.00;99236.06;5052909;28;20207;-74
2023/04/04 08:53:10;;;;;;;1.20;1.20;;;;;;;5.24;100.00;99238.81;5053213;28;20616;-72
2023/04/04 08:55:37;;;;;;;1.20;1.20;;;;;;;5.10;100.00;99246.19;5052938;28;20585;-73
2023/04/04 08:58:04;;;;;;;1.30;1.30;;;;;;;5.13;100.00;99246.28;5052788;28;20625;-73
2023/04/04 09:00:32;;;;;;;1.00;1.00;;;;;;;4.71;100.00;99197.31;5050402;28;20253;-75
2023/04/04 09:03:06;;;;;;;2.30;2.10;;;;;;;4.55;100.00;99150.72;5052866;28;20597;-75
2023/04/04 09:05:34;;;;;;;2.43;2.33;;;;;;;5.06;100.00;99238.41;5052842;28;20222;-74
2023/04/04 09:08:04;;;;;;;1.60;1.50;;;;;;;5.16;100.00;99222.34;5052874;28;20202;-73
2023/04/04 09:10:31;;;;;;;1.20;1.20;;;;;;;4.99;100.00;99221.97;5018197;28;20211;-73
2023/04/04 09:12:59;;;;;;;1.27;1.27;;;;;;;5.16;100.00;99205.25;5052550;28;20202;-72
2023/04/04 09:15:26;;;;;;;1.10;1.10;;;;;;;5.11;100.00;99227.38;5052662;28;20214;-74
2023/04/04 09:17:53;;;;;;;1.60;1.60;;;;;;;5.02;100.00;99229.75;5052216;28;20315;-73
2023/04/04 09:20:39;;;;;;;1.00;1.00;;;;;;;5.19;100.00;99217.28;5052588;28;20211;-73
2023/04/04 09:23:10;;;;;;;1.37;1.37;;;;;;;5.17;100.00;99211.25;5052050;28;20265;-73
2023/04/04 09:25:37;;;;;;;1.23;1.17;;;;;;;5.08;100.00;99231.56;5052515;28;20214;-75
2023/04/04 09:28:05;;;;;;;2.07;1.97;;;;;;;5.15;100.00;99224.03;5052703;28;20239;-73
2023/04/04 09:30:33;;;;;;;1.97;1.70;;;;;;;5.02;100.00;99231.44;5052548;28;20206;-73
2023/04/04 09:33:04;;;;;;;1.43;1.43;;;;;;;5.01;100.00;99240.84;5052304;28;20204;-75
2023/04/04 09:35:34;;;;;;;1.97;1.80;;;;;;;5.03;100.00;99234.03;5052128;28;20203;-73
2023/04/04 09:38:01;;;;;;;1.20;1.20;;;;;;;4.96;100.00;99221.88;5017766;28;20223;-75
2023/04/04 09:40:30;;;;;;;1.10;1.10;;;;;;;5.14;100.00;99217.16;5032723;28;20203;-73
2023/04/04 09:43:00;;;;;;;1.30;1.30;;;;;;;5.09;100.00;99229.06;5052210;28;20219;-73
2023/04/04 09:45:28;;;;;;;1.30;1.30;;;;;;;4.91;100.00;99226.94;5052196;28;20222;-75
2023/04/04 09:47:56;;;;;;;1.80;1.70;;;;;;;4.96;100.00;99237.28;5052020;28;20210;-74
2023/04/04 09:50:24;;;;;;;1.37;1.37;;;;;;;4.91;100.00;99231.19;5033344;28;20202;-74
2023/04/04 09:52:52;;;;;;;1.10;1.10;;;;;;;4.95;100.00;99230.44;5052085;28;20207;-75
2023/04/04 09:55:19;;;;;;;1.37;1.37;;;;;;;5.17;100.00;99221.53;5051924;28;20203;-72
2023/04/04 09:57:48;;;;;;;1.60;1.60;;;;;;;5.24;100.00;99213.13;5051958;28;20230;-74
2023/04/04 10:00:20;;;;;;;1.60;1.53;;;;;;;5.09;100.00;99212.78;5051798;28;20235;-77
2023/04/04 10:02:48;;;;;;;1.00;1.00;;;;;;;5.04;100.00;99217.78;4981064;28;20201;-75
2023/04/04 10:05:16;;;;;;;1.00;1.00;;;;;;;4.98;100.00;99225.38;5047087;28;20214;-75
2023/04/04 10:07:46;;;;;;;1.10;1.10;;;;;;;5.03;100.00;99238.31;5051770;28;20199;-75
2023/04/04 10:10:14;;;;;;;1.10;1.10;;;;;;;5.08;100.00;99241.84;5051884;28;20195;-75
2023/04/04 10:12:41;;;;;;;1.20;1.20;;;;;;;4.97;100.00;99234.78;5052108;28;20279;-76
2023/04/04 10:15:10;;;;;;;2.47;2.27;;;;;;;5.08;100.00;99232.44;5051949;28;20195;-75
2023/04/04 10:17:38;;;;;;;1.10;1.10;;;;;;;4.95;100.00;99220.16;5016881;28;20223;-75
2023/04/04 10:20:07;;;;;;;1.10;1.10;;;;;;;4.81;100.00;99206.13;5051858;28;20686;-76
2023/04/04 10:22:35;;;;;;;1.13;1.13;;;;;;;5.17;100.00;99242.94;5051698;28;20206;-75
2023/04/04 10:25:04;;;;;;;1.10;1.10;;;;;;;6.13;100.00;99222.69;5051661;28;20210;-74
2023/04/04 10:27:31;;;;;;;1.00;1.00;;;;;;;5.68;100.00;99229.47;5033352;28;20269;-74
2023/04/04 10:29:58;;;;;;;1.00;1.00;;;;;;;5.38;100.00;99242.56;5016427;28;20199;-73
2023/04/04 10:32:34;;;;;;;1.27;1.27;;;;;;;5.33;100.00;99227.03;5051389;28;20674;-75
2023/04/04 10:35:06;;;;;;;1.20;1.20;;;;;;;5.33;100.00;99245.00;5051382;28;20207;-75
2023/04/04 10:37:40;;;;;;;1.33;1.23;;;;;;;5.12;100.00;99241.09;5051183;28;20792;-75
2023/04/04 10:40:10;;;;;;;1.20;1.20;;;;;;;5.13;100.00;99225.72;5051266;28;20210;-73
2023/04/04 10:42:39;;;;;;;1.10;1.10;;;;;;;5.08;100.00;99253.00;5051533;28;20200;-75
2023/04/04 10:45:09;;;;;;;1.87;1.77;;;;;;;5.12;100.00;99247.09;5051246;28;20206;-76
2023/04/04 10:47:37;;;;;;;1.37;1.37;;;;;;;5.19;100.00;99246.41;5033099;28;20231;-75
2023/04/04 10:50:07;;;;;;;1.90;1.80;;;;;;;5.32;100.00;99238.13;5050999;28;20593;-74
2023/04/04 10:52:36;;;;;;;1.17;1.17;;;;;;;5.46;100.00;99230.72;5050739;28;20743;-73
2023/04/04 10:55:06;;;;;;;1.40;1.40;;;;;;;5.24;100.00;99241.38;5051280;28;20703;-75
2023/04/04 10:57:34;;;;;;;1.67;1.57;;;;;;;5.16;100.00;99220.66;5032923;28;20199;-76
2023/04/04 11:00:04;;;;;;;6.90;1.47;;;;;;;5.32;100.00;99238.13;5050332;28;20281;-74
2023/04/04 11:02:50;;;;;;;1.10;1.10;;;;;;;5.23;100.00;99203.66;5050240;28;20214;-77
2023/04/04 11:05:21;;;;;;;1.10;1.10;;;;;;;5.34;100.00;99233.91;5049807;28;20203;-75
2023/04/04 11:07:54;;;;;;;1.40;1.40;;;;;;;5.37;100.00;99246.81;5051159;28;20203;-74
2023/04/04 11:10:25;;;;;;;1.13;1.13;;;;;;;5.40;100.00;99239.19;5051040;28;20639;-74
2023/04/04 11:13:03;;;;;;;1.43;1.40;;;;;;;5.27;100.00;99226.91;5050938;28;20238;-73
2023/04/04 11:15:45;;;;;;;1.33;1.33;;;;;;;5.44;100.00;99238.41;5050989;28;20644;-73
2023/04/04 11:18:14;;;;;;;1.17;1.17;;;;;;;5.41;100.00;99243.50;5051114;28;20293;-74
2023/04/04 11:20:44;;;;;;;2.60;2.50;;;;;;;5.43;100.00;99221.25;5050859;28;20265;-73
2023/04/04 11:23:18;;;;;;;1.20;1.20;;;;;;;5.54;100.00;99226.63;5050974;28;20199;-73
2023/04/04 11:25:50;;;;;;;1.13;1.13;;;;;;;5.43;100.00;99228.97;5050851;28;20207;-72
2023/04/04 11:28:42;;;;;;;1.60;1.50;;;;;;;5.40;100.00;99236.59;5050863;28;20210;-74
2023/04/04 11:31:27;;;;;;;1.40;1.40;;;;;;;5.45;100.00;99229.00;5050773;28;20265;-74
2023/04/04 11:33:58;;;;;;;1.23;1.23;;;;;;;5.41;100.00;99196.34;5050615;28;20200;-72
2023/04/04 11:36:49;;;;;;;1.53;1.47;;;;;;;5.46;100.00;99213.59;5050871;28;20253;-76
2023/04/04 11:39:22;;;;;;;1.20;1.20;;;;;;;5.48;100.00;99217.09;5048287;28;20219;-72